PWSweather.com
Personal Weather Stations
Station Observations
J24K28P63
Vysocina, PocatkyCZ 39464

VysocinaPocatkyCZ 39464

Lat: 49.2594238, Lon: 15.2331769

Elevation: 2011

Station Type: Vantage Pro2+

http://meteo-jirkalina.com

High Low Average
Temperature 96.2°F35.7°C 63.4°F17.4°C 81.9°F27.7°C
Dew Point 67.5°F19.7°C 41.0°F5.0°C 61.1°F16.2°C
Winds 9.0 mph 14.5 kmh Calm Calm 2.0 mph SE3.2 kmh SE
Wind Gusts 15.0 mph24.1 kmh -- 4.0 mph6.4 kmh
Humidity 89% 18% 53%
Pressure 29.90 in1012.5 mb 29.80 in1009.1 mb -
Precipitation 0.02 in0.5 mm - -
Hour Temp Dew Point Humidity Winds Wind Gusts Pressure Precip Precip Rate Daily Precip Total
12:00 AM 71.8°F22.1°C 60.7°F15.9°C 68% 2.9 mph ESE4.7 kmh ESE 5.0 mph8.0 kmh 29.84 in1010.5 mb - 0.00 in0.0 mm 0.00 in0.0 mm
12:30 AM 71.6°F22.0°C 58.8°F14.9°C 64% Calm Calm -- 29.84 in1010.5 mb - 0.00 in0.0 mm 0.00 in0.0 mm
01:00 AM 70.1°F21.2°C 58.6°F14.8°C 67% 0.2 mph E0.3 kmh E -- 29.83 in1010.2 mb - 0.00 in0.0 mm 0.00 in0.0 mm
01:30 AM 69.4°F20.8°C 58.8°F14.9°C 69% 0.9 mph E1.4 kmh E 3.0 mph4.8 kmh 29.83 in1010.2 mb - 0.00 in0.0 mm 0.00 in0.0 mm
02:00 AM 68.8°F20.4°C 61.7°F16.5°C 78% 2.0 mph E3.2 kmh E 4.0 mph6.4 kmh 29.82 in1009.8 mb - 0.00 in0.0 mm 0.00 in0.0 mm
02:30 AM 68.1°F20.1°C 62.0°F16.7°C 81% Calm Calm -- 29.81 in1009.5 mb - 0.00 in0.0 mm 0.00 in0.0 mm
03:00 AM 66.9°F19.4°C 61.9°F16.6°C 84% 0.4 mph E0.6 kmh E 1.0 mph1.6 kmh 29.81 in1009.5 mb - 0.00 in0.0 mm 0.00 in0.0 mm
03:30 AM 66.4°F19.1°C 61.8°F16.6°C 85% Calm Calm -- 29.81 in1009.5 mb - 0.00 in0.0 mm 0.00 in0.0 mm
04:00 AM 65.6°F18.7°C 61.0°F16.1°C 85% Calm Calm -- 29.80 in1009.1 mb - 0.00 in0.0 mm 0.00 in0.0 mm
04:30 AM 64.7°F18.2°C 60.7°F15.9°C 87% Calm Calm -- 29.80 in1009.1 mb - 0.00 in0.0 mm 0.00 in0.0 mm
05:00 AM 63.4°F17.4°C 60.1°F15.6°C 89% Calm Calm -- 29.80 in1009.1 mb - 0.00 in0.0 mm 0.00 in0.0 mm
05:10 AM 71.2°F21.8°C 64.7°F18.2°C 80% Calm Calm 2.0 mph3.2 kmh 29.85 in1010.8 mb - 0.00 in0.0 mm 0.00 in0.0 mm
05:20 AM 71.2°F21.8°C 64.7°F18.2°C 80% Calm Calm 1.0 mph1.6 kmh 29.85 in1010.8 mb - 0.00 in0.0 mm 0.00 in0.0 mm
05:30 AM 63.9°F17.7°C 60.3°F15.7°C 88% Calm Calm -- 29.81 in1009.5 mb - 0.00 in0.0 mm 0.00 in0.0 mm
05:40 AM 71.7°F22.1°C 64.9°F18.3°C 79% Calm Calm 1.0 mph1.6 kmh 29.85 in1010.8 mb - 0.00 in0.0 mm 0.00 in0.0 mm
05:50 AM 72.7°F22.6°C 65.4°F18.6°C 78% 1.0 mph ESE1.6 kmh ESE 2.0 mph3.2 kmh 29.85 in1010.8 mb - 0.00 in0.0 mm 0.00 in0.0 mm
06:00 AM 73.8°F23.2°C 65.4°F18.6°C 75% 1.0 mph ESE1.6 kmh ESE 3.0 mph4.8 kmh 29.86 in1011.2 mb - 0.00 in0.0 mm 0.00 in0.0 mm
06:10 AM 74.6°F23.7°C 65.8°F18.8°C 74% Calm Calm 3.0 mph4.8 kmh 29.86 in1011.2 mb - 0.00 in0.0 mm 0.00 in0.0 mm
06:20 AM 75.4°F24.1°C 66.1°F18.9°C 73% 1.0 mph E1.6 kmh E 3.0 mph4.8 kmh 29.86 in1011.2 mb - 0.00 in0.0 mm 0.00 in0.0 mm
06:30 AM 69.9°F21.1°C 61.6°F16.4°C 75% 2.0 mph E3.2 kmh E 4.0 mph6.4 kmh 29.81 in1009.5 mb - 0.00 in0.0 mm 0.00 in0.0 mm
06:50 AM 77.4°F25.2°C 66.5°F19.2°C 69% 3.0 mph ESE4.8 kmh ESE 8.0 mph12.9 kmh 29.86 in1011.2 mb - 0.00 in0.0 mm 0.00 in0.0 mm
07:00 AM 77.2°F25.1°C 65.9°F18.8°C 68% 1.0 mph E1.6 kmh E 3.0 mph4.8 kmh 29.86 in1011.2 mb - 0.00 in0.0 mm 0.00 in0.0 mm
07:10 AM 76.8°F24.9°C 65.8°F18.8°C 69% 1.0 mph ESE1.6 kmh ESE 3.0 mph4.8 kmh 29.86 in1011.2 mb - 0.00 in0.0 mm 0.00 in0.0 mm
07:20 AM 77.2°F25.1°C 65.8°F18.8°C 68% 3.0 mph E4.8 kmh E 7.0 mph11.3 kmh 29.86 in1011.2 mb - 0.00 in0.0 mm 0.00 in0.0 mm
07:30 AM 77.2°F25.1°C 65.8°F18.8°C 68% 3.0 mph E4.8 kmh E 8.0 mph12.9 kmh 29.87 in1011.5 mb - 0.00 in0.0 mm 0.00 in0.0 mm
07:40 AM 77.5°F25.3°C 66.1°F18.9°C 68% 2.0 mph ESE3.2 kmh ESE 6.0 mph9.7 kmh 29.87 in1011.5 mb - 0.00 in0.0 mm 0.00 in0.0 mm
07:50 AM 77.2°F25.1°C 66.2°F19.0°C 69% 3.0 mph SE4.8 kmh SE 3.0 mph4.8 kmh 29.87 in1011.5 mb - 0.00 in0.0 mm 0.00 in0.0 mm
08:00 AM 77.3°F25.2°C 66.3°F19.1°C 69% 1.0 mph SE1.6 kmh SE 2.0 mph3.2 kmh 29.87 in1011.5 mb - 0.00 in0.0 mm 0.00 in0.0 mm
08:10 AM 77.3°F25.2°C 66.3°F19.1°C 69% Calm Calm 2.0 mph3.2 kmh 29.88 in1011.9 mb - 0.00 in0.0 mm 0.00 in0.0 mm
08:20 AM 77.8°F25.4°C 66.8°F19.3°C 69% 1.0 mph SE1.6 kmh SE 2.0 mph3.2 kmh 29.88 in1011.9 mb - 0.00 in0.0 mm 0.00 in0.0 mm
08:30 AM 77.0°F25.0°C 55.8°F13.2°C 48% 0.2 mph ESE0.3 kmh ESE 5.0 mph8.0 kmh 29.84 in1010.5 mb - 0.00 in0.0 mm 0.00 in0.0 mm
08:40 AM 78.8°F26.0°C 66.5°F19.2°C 66% Calm Calm -- 29.89 in1012.2 mb - 0.00 in0.0 mm 0.00 in0.0 mm
08:50 AM 79.9°F26.6°C 67.0°F19.4°C 65% 1.0 mph SE1.6 kmh SE 2.0 mph3.2 kmh 29.89 in1012.2 mb - 0.00 in0.0 mm 0.00 in0.0 mm
09:00 AM 81.0°F27.2°C 66.8°F19.3°C 62% Calm Calm 2.0 mph3.2 kmh 29.88 in1011.9 mb - 0.00 in0.0 mm 0.00 in0.0 mm
09:10 AM 81.9°F27.7°C 67.2°F19.6°C 61% 2.0 mph SE3.2 kmh SE 3.0 mph4.8 kmh 29.88 in1011.9 mb - 0.00 in0.0 mm 0.00 in0.0 mm
09:20 AM 83.9°F28.8°C 67.5°F19.7°C 58% 1.0 mph SE1.6 kmh SE 3.0 mph4.8 kmh 29.88 in1011.9 mb - 0.00 in0.0 mm 0.00 in0.0 mm
09:30 AM 80.9°F27.2°C 52.9°F11.6°C 38% 2.0 mph SE3.2 kmh SE 3.0 mph4.8 kmh 29.84 in1010.5 mb - 0.00 in0.0 mm 0.00 in0.0 mm
09:40 AM 86.8°F30.4°C 66.5°F19.2°C 51% 1.0 mph ENE1.6 kmh ENE 2.0 mph3.2 kmh 29.88 in1011.9 mb - 0.00 in0.0 mm 0.00 in0.0 mm
09:50 AM 89.0°F31.7°C 66.8°F19.3°C 48% 1.0 mph ENE1.6 kmh ENE 3.0 mph4.8 kmh 29.87 in1011.5 mb - 0.00 in0.0 mm 0.00 in0.0 mm
10:00 AM 88.5°F31.4°C 66.3°F19.1°C 48% Calm Calm 1.0 mph1.6 kmh 29.87 in1011.5 mb - 0.00 in0.0 mm 0.00 in0.0 mm
10:10 AM 88.4°F31.3°C 65.6°F18.7°C 47% 3.0 mph ENE4.8 kmh ENE 3.0 mph4.8 kmh 29.87 in1011.5 mb - 0.00 in0.0 mm 0.00 in0.0 mm
10:20 AM 89.9°F32.2°C 66.4°F19.1°C 46% 3.0 mph NE4.8 kmh NE 6.0 mph9.7 kmh 29.87 in1011.5 mb - 0.00 in0.0 mm 0.00 in0.0 mm
10:30 AM 84.6°F29.2°C 48.8°F9.3°C 29% 0.8 mph S1.3 kmh S 5.0 mph8.0 kmh 29.84 in1010.5 mb - 0.00 in0.0 mm 0.00 in0.0 mm
10:40 AM 90.0°F32.2°C 66.4°F19.1°C 46% 1.0 mph ENE1.6 kmh ENE 1.0 mph1.6 kmh 29.86 in1011.2 mb - 0.00 in0.0 mm 0.00 in0.0 mm
10:50 AM 92.0°F33.3°C 66.3°F19.1°C 43% 2.0 mph SSW3.2 kmh SSW 5.0 mph8.0 kmh 29.87 in1011.5 mb - 0.00 in0.0 mm 0.00 in0.0 mm
11:00 AM 89.9°F32.2°C 65.7°F18.7°C 45% 2.0 mph SSW3.2 kmh SSW 5.0 mph8.0 kmh 29.87 in1011.5 mb - 0.00 in0.0 mm 0.00 in0.0 mm
11:10 AM 89.0°F31.7°C 65.5°F18.6°C 46% 2.0 mph SW3.2 kmh SW 5.0 mph8.0 kmh 29.87 in1011.5 mb - 0.00 in0.0 mm 0.00 in0.0 mm
11:20 AM 89.1°F31.7°C 66.2°F19.0°C 47% 1.0 mph SW1.6 kmh SW 3.0 mph4.8 kmh 29.87 in1011.5 mb - 0.00 in0.0 mm 0.00 in0.0 mm
11:30 AM 86.6°F30.3°C 47.6°F8.7°C 26% 0.1 mph WNW0.2 kmh WNW -- 29.83 in1010.2 mb - 0.00 in0.0 mm 0.00 in0.0 mm
11:40 AM 91.0°F32.8°C 66.0°F18.9°C 44% 5.0 mph S8.0 kmh S 9.0 mph14.5 kmh 29.86 in1011.2 mb - 0.00 in0.0 mm 0.00 in0.0 mm
11:50 AM 93.3°F34.1°C 66.1°F18.9°C 41% 1.0 mph SSW1.6 kmh SSW 3.0 mph4.8 kmh 29.86 in1011.2 mb - 0.00 in0.0 mm 0.00 in0.0 mm
12:00 PM 93.6°F34.2°C 64.2°F17.9°C 38% 6.0 mph NW9.7 kmh NW 8.0 mph12.9 kmh 29.86 in1011.2 mb - 0.00 in0.0 mm 0.00 in0.0 mm
12:10 PM 94.3°F34.6°C 62.5°F16.9°C 35% 5.0 mph SSW8.0 kmh SSW 6.0 mph9.7 kmh 29.86 in1011.2 mb - 0.00 in0.0 mm 0.00 in0.0 mm
12:20 PM 92.8°F33.8°C 61.1°F16.2°C 35% 1.0 mph S1.6 kmh S 2.0 mph3.2 kmh 29.86 in1011.2 mb - 0.00 in0.0 mm 0.00 in0.0 mm
12:30 PM 89.5°F31.9°C 43.1°F6.2°C 20% 0.8 mph WSW1.3 kmh WSW 3.0 mph4.8 kmh 29.83 in1010.2 mb - 0.00 in0.0 mm 0.00 in0.0 mm
12:40 PM 93.3°F34.1°C 61.6°F16.4°C 35% 5.0 mph SW8.0 kmh SW 6.0 mph9.7 kmh 29.86 in1011.2 mb - 0.00 in0.0 mm 0.00 in0.0 mm
12:50 PM 92.7°F33.7°C 61.9°F16.6°C 36% 2.0 mph SSW3.2 kmh SSW 5.0 mph8.0 kmh 29.86 in1011.2 mb - 0.00 in0.0 mm 0.00 in0.0 mm
01:00 PM 93.8°F34.3°C 61.2°F16.2°C 34% Calm Calm 3.0 mph4.8 kmh 29.86 in1011.2 mb - 0.00 in0.0 mm 0.00 in0.0 mm
01:10 PM 92.7°F33.7°C 59.4°F15.2°C 33% Calm Calm 1.0 mph1.6 kmh 29.85 in1010.8 mb - 0.00 in0.0 mm 0.00 in0.0 mm
01:20 PM 93.9°F34.4°C 61.3°F16.3°C 34% 3.0 mph SSW4.8 kmh SSW 7.0 mph11.3 kmh 29.85 in1010.8 mb - 0.00 in0.0 mm 0.00 in0.0 mm
01:30 PM 90.3°F32.4°C 41.0°F5.0°C 18% 4.1 mph SW6.6 kmh SW 9.0 mph14.5 kmh 29.82 in1009.8 mb - 0.00 in0.0 mm 0.00 in0.0 mm
01:40 PM 93.1°F33.9°C 61.4°F16.3°C 35% 3.0 mph NE4.8 kmh NE 6.0 mph9.7 kmh 29.85 in1010.8 mb - 0.00 in0.0 mm 0.00 in0.0 mm
01:50 PM 94.4°F34.7°C 60.9°F16.1°C 33% 1.0 mph N1.6 kmh N 2.0 mph3.2 kmh 29.84 in1010.5 mb - 0.00 in0.0 mm 0.00 in0.0 mm
02:00 PM 94.9°F34.9°C 61.3°F16.3°C 33% 2.0 mph NE3.2 kmh NE 3.0 mph4.8 kmh 29.84 in1010.5 mb - 0.00 in0.0 mm 0.00 in0.0 mm
02:10 PM 96.2°F35.7°C 60.7°F15.9°C 31% 3.0 mph SE4.8 kmh SE 3.0 mph4.8 kmh 29.84 in1010.5 mb - 0.00 in0.0 mm 0.00 in0.0 mm
02:20 PM 95.5°F35.3°C 61.8°F16.6°C 33% 3.0 mph SE4.8 kmh SE 5.0 mph8.0 kmh 29.84 in1010.5 mb - 0.00 in0.0 mm 0.00 in0.0 mm
02:30 PM 89.3°F31.8°C 44.2°F6.8°C 21% 2.3 mph WNW3.7 kmh WNW 10.0 mph16.1 kmh 29.81 in1009.5 mb - 0.00 in0.0 mm 0.00 in0.0 mm
02:40 PM 95.9°F35.5°C 62.2°F16.8°C 33% 1.0 mph SW1.6 kmh SW 2.0 mph3.2 kmh 29.83 in1010.2 mb - 0.00 in0.0 mm 0.00 in0.0 mm
02:50 PM 93.9°F34.4°C 61.3°F16.3°C 34% 2.0 mph SSW3.2 kmh SSW 3.0 mph4.8 kmh 29.83 in1010.2 mb - 0.00 in0.0 mm 0.00 in0.0 mm
03:00 PM 94.5°F34.7°C 61.0°F16.1°C 33% Calm Calm 3.0 mph4.8 kmh 29.83 in1010.2 mb - 0.00 in0.0 mm 0.00 in0.0 mm
03:10 PM 92.5°F33.6°C 60.8°F16.0°C 35% 5.0 mph ENE8.0 kmh ENE 9.0 mph14.5 kmh 29.83 in1010.2 mb - 0.00 in0.0 mm 0.00 in0.0 mm
03:20 PM 92.5°F33.6°C 60.8°F16.0°C 35% 2.0 mph ESE3.2 kmh ESE 3.0 mph4.8 kmh 29.83 in1010.2 mb - 0.00 in0.0 mm 0.00 in0.0 mm
03:30 PM 85.9°F29.9°C 49.0°F9.4°C 28% 7.4 mph NE11.9 kmh NE 14.0 mph22.5 kmh 29.82 in1009.8 mb - 0.00 in0.0 mm 0.00 in0.0 mm
03:40 PM 93.9°F34.4°C 61.3°F16.3°C 34% Calm Calm 2.0 mph3.2 kmh 29.82 in1009.8 mb - 0.00 in0.0 mm 0.00 in0.0 mm
03:50 PM 94.0°F34.4°C 60.5°F15.8°C 33% 2.0 mph E3.2 kmh E 3.0 mph4.8 kmh 29.82 in1009.8 mb - 0.00 in0.0 mm 0.00 in0.0 mm
04:00 PM 94.7°F34.8°C 61.1°F16.2°C 33% 2.0 mph NE3.2 kmh NE 7.0 mph11.3 kmh 29.81 in1009.5 mb - 0.00 in0.0 mm 0.00 in0.0 mm
04:10 PM 94.2°F34.6°C 60.7°F15.9°C 33% Calm Calm 1.0 mph1.6 kmh 29.81 in1009.5 mb - 0.00 in0.0 mm 0.00 in0.0 mm
04:20 PM 94.6°F34.8°C 61.9°F16.6°C 34% 1.0 mph NE1.6 kmh NE 6.0 mph9.7 kmh 29.81 in1009.5 mb - 0.00 in0.0 mm 0.00 in0.0 mm
04:30 PM 88.2°F31.2°C 46.8°F8.2°C 24% 0.6 mph W1.0 kmh W 3.0 mph4.8 kmh 29.81 in1009.5 mb - 0.00 in0.0 mm 0.00 in0.0 mm
04:40 PM 91.5°F33.1°C 60.0°F15.6°C 35% 3.0 mph ENE4.8 kmh ENE 5.0 mph8.0 kmh 29.82 in1009.8 mb - 0.00 in0.0 mm 0.00 in0.0 mm
04:50 PM 90.7°F32.6°C 60.0°F15.6°C 36% 1.0 mph ENE1.6 kmh ENE 3.0 mph4.8 kmh 29.82 in1009.8 mb - 0.00 in0.0 mm 0.00 in0.0 mm
05:00 PM 86.7°F30.4°C 47.7°F8.7°C 26% 2.2 mph NNE3.5 kmh NNE 7.0 mph11.3 kmh 29.82 in1009.8 mb - 0.00 in0.0 mm 0.00 in0.0 mm
05:10 PM 85.5°F29.7°C 61.8°F16.6°C 45% 9.0 mph WSW14.5 kmh WSW 13.0 mph20.9 kmh 29.83 in1010.2 mb - 0.00 in0.0 mm 0.00 in0.0 mm
05:20 PM 81.9°F27.7°C 61.5°F16.4°C 50% 8.0 mph SW12.9 kmh SW 15.0 mph24.1 kmh 29.84 in1010.5 mb - 0.00 in0.0 mm 0.00 in0.0 mm
05:30 PM 84.6°F29.2°C 47.9°F8.8°C 28% 0.9 mph ENE1.4 kmh ENE 3.0 mph4.8 kmh 29.82 in1009.8 mb - 0.00 in0.0 mm 0.00 in0.0 mm
05:40 PM 74.1°F23.4°C 65.6°F18.7°C 75% 6.0 mph S9.7 kmh S 8.0 mph12.9 kmh 29.86 in1011.2 mb - 0.00 in0.0 mm 0.01 in0.3 mm
05:50 PM 73.8°F23.2°C 65.4°F18.6°C 75% 3.0 mph SE4.8 kmh SE 8.0 mph12.9 kmh 29.86 in1011.2 mb - 0.00 in0.0 mm 0.01 in0.3 mm
06:00 PM 74.9°F23.8°C 65.6°F18.7°C 73% 2.0 mph SSE3.2 kmh SSE 3.0 mph4.8 kmh 29.87 in1011.5 mb - 0.00 in0.0 mm 0.01 in0.3 mm
06:10 PM 75.5°F24.2°C 65.8°F18.8°C 72% 3.0 mph SE4.8 kmh SE 8.0 mph12.9 kmh 29.87 in1011.5 mb - 0.00 in0.0 mm 0.01 in0.3 mm
06:20 PM 75.9°F24.4°C 65.4°F18.6°C 70% 3.0 mph E4.8 kmh E 7.0 mph11.3 kmh 29.87 in1011.5 mb - 0.00 in0.0 mm 0.01 in0.3 mm
06:30 PM 82.6°F28.1°C 49.7°F9.8°C 32% Calm Calm -- 29.83 in1010.2 mb - 0.00 in0.0 mm 0.00 in0.0 mm
06:40 PM 77.0°F25.0°C 65.2°F18.4°C 67% 1.0 mph SE1.6 kmh SE 2.0 mph3.2 kmh 29.87 in1011.5 mb - 0.00 in0.0 mm 0.01 in0.3 mm
06:50 PM 77.3°F25.2°C 65.4°F18.6°C 67% Calm Calm 1.0 mph1.6 kmh 29.87 in1011.5 mb - 0.00 in0.0 mm 0.01 in0.3 mm
07:00 PM 77.1°F25.1°C 66.1°F18.9°C 69% Calm Calm -- 29.87 in1011.5 mb - 0.01 in0.3 mm 0.02 in0.5 mm
07:10 PM 76.5°F24.7°C 65.9°F18.8°C 70% Calm Calm 2.0 mph3.2 kmh 29.87 in1011.5 mb - 0.00 in0.0 mm 0.02 in0.5 mm
07:20 PM 75.9°F24.4°C 65.4°F18.6°C 70% 1.0 mph SE1.6 kmh SE 2.0 mph3.2 kmh 29.88 in1011.9 mb - 0.00 in0.0 mm 0.02 in0.5 mm
07:30 PM 78.5°F25.8°C 53.5°F11.9°C 42% Calm Calm -- 29.84 in1010.5 mb - 0.00 in0.0 mm 0.01 in0.3 mm
08:00 PM 76.1°F24.5°C 55.0°F12.8°C 48% Calm Calm -- 29.85 in1010.8 mb - 0.00 in0.0 mm 0.01 in0.3 mm
08:30 PM 74.0°F23.3°C 57.3°F14.1°C 56% Calm Calm -- 29.86 in1011.2 mb - 0.00 in0.0 mm 0.01 in0.3 mm
09:00 PM 72.1°F22.3°C 58.8°F14.9°C 63% Calm Calm -- 29.86 in1011.2 mb - 0.00 in0.0 mm 0.01 in0.3 mm
09:30 PM 73.3°F22.9°C 53.0°F11.7°C 49% 3.3 mph W5.3 kmh W 6.0 mph9.7 kmh 29.90 in1012.5 mb - 0.00 in0.0 mm 0.01 in0.3 mm
10:00 PM 72.3°F22.4°C 54.2°F12.3°C 53% Calm Calm -- 29.90 in1012.5 mb - 0.00 in0.0 mm 0.01 in0.3 mm
10:30 PM 71.6°F22.0°C 55.1°F12.8°C 56% Calm Calm -- 29.90 in1012.5 mb - 0.00 in0.0 mm 0.01 in0.3 mm
11:00 PM 70.3°F21.3°C 56.2°F13.4°C 61% Calm Calm -- 29.89 in1012.2 mb - 0.00 in0.0 mm 0.01 in0.3 mm
11:30 PM 68.9°F20.5°C 57.1°F13.9°C 66% Calm Calm -- 29.88 in1011.9 mb - 0.00 in0.0 mm 0.01 in0.3 mm